sensor_id;sensor_type;location;lat;lon;timestamp;P1;durP1;ratioP1;P2;durP2;ratioP2
11797;SDS011;5956;51.428;6.682;2023-02-11T00:02:09;29.37;;;21.20;;
11797;SDS011;5956;51.428;6.682;2023-02-11T00:04:36;30.27;;;21.00;;
11797;SDS011;5956;51.428;6.682;2023-02-11T00:07:04;30.70;;;22.10;;
11797;SDS011;5956;51.428;6.682;2023-02-11T00:09:30;27.50;;;20.93;;
11797;SDS011;5956;51.428;6.682;2023-02-11T00:11:57;29.03;;;22.27;;
11797;SDS011;5956;51.428;6.682;2023-02-11T00:14:24;29.57;;;21.57;;
11797;SDS011;5956;51.428;6.682;2023-02-11T00:16:51;26.40;;;20.20;;
11797;SDS011;5956;51.428;6.682;2023-02-11T00:19:17;28.13;;;22.23;;
11797;SDS011;5956;51.428;6.682;2023-02-11T00:21:44;25.87;;;20.50;;
11797;SDS011;5956;51.428;6.682;2023-02-11T00:24:12;26.40;;;21.23;;
11797;SDS011;5956;51.428;6.682;2023-02-11T00:26:39;28.40;;;20.70;;
11797;SDS011;5956;51.428;6.682;2023-02-11T00:29:05;26.60;;;20.90;;
11797;SDS011;5956;51.428;6.682;2023-02-11T00:31:32;28.60;;;20.47;;
11797;SDS011;5956;51.428;6.682;2023-02-11T00:33:59;25.63;;;20.70;;
11797;SDS011;5956;51.428;6.682;2023-02-11T00:36:26;23.03;;;20.47;;
11797;SDS011;5956;51.428;6.682;2023-02-11T00:38:54;25.90;;;20.63;;
11797;SDS011;5956;51.428;6.682;2023-02-11T00:41:22;27.13;;;20.53;;
11797;SDS011;5956;51.428;6.682;2023-02-11T00:43:49;30.27;;;21.87;;
11797;SDS011;5956;51.428;6.682;2023-02-11T00:46:15;25.63;;;20.43;;
11797;SDS011;5956;51.428;6.682;2023-02-11T00:48:42;27.40;;;21.20;;
11797;SDS011;5956;51.428;6.682;2023-02-11T00:51:09;24.27;;;19.03;;
11797;SDS011;5956;51.428;6.682;2023-02-11T00:53:35;28.07;;;20.30;;
11797;SDS011;5956;51.428;6.682;2023-02-11T00:56:02;30.97;;;20.90;;
11797;SDS011;5956;51.428;6.682;2023-02-11T00:58:30;25.30;;;20.77;;
11797;SDS011;5956;51.428;6.682;2023-02-11T01:00:57;25.43;;;18.90;;
11797;SDS011;5956;51.428;6.682;2023-02-11T01:03:24;28.03;;;20.20;;
11797;SDS011;5956;51.428;6.682;2023-02-11T01:05:50;24.33;;;19.67;;
11797;SDS011;5956;51.428;6.682;2023-02-11T01:08:17;28.30;;;20.17;;
11797;SDS011;5956;51.428;6.682;2023-02-11T01:10:43;24.47;;;19.03;;
11797;SDS011;5956;51.428;6.682;2023-02-11T01:13:10;24.60;;;18.33;;
11797;SDS011;5956;51.428;6.682;2023-02-11T01:15:38;27.37;;;19.53;;
11797;SDS011;5956;51.428;6.682;2023-02-11T01:18:05;24.50;;;19.17;;
11797;SDS011;5956;51.428;6.682;2023-02-11T01:20:31;25.93;;;18.07;;
11797;SDS011;5956;51.428;6.682;2023-02-11T01:22:58;22.50;;;18.90;;
11797;SDS011;5956;51.428;6.682;2023-02-11T01:25:24;24.47;;;19.30;;
11797;SDS011;5956;51.428;6.682;2023-02-11T01:27:51;24.03;;;18.60;;
11797;SDS011;5956;51.428;6.682;2023-02-11T01:30:17;22.00;;;17.50;;
11797;SDS011;5956;51.428;6.682;2023-02-11T01:32:45;23.93;;;18.37;;
11797;SDS011;5956;51.428;6.682;2023-02-11T01:35:12;24.83;;;17.60;;
11797;SDS011;5956;51.428;6.682;2023-02-11T01:37:38;23.10;;;17.90;;
11797;SDS011;5956;51.428;6.682;2023-02-11T01:40:10;22.10;;;17.80;;
11797;SDS011;5956;51.428;6.682;2023-02-11T01:42:37;25.07;;;17.80;;
11797;SDS011;5956;51.428;6.682;2023-02-11T01:47:46;22.60;;;17.90;;
11797;SDS011;5956;51.428;6.682;2023-02-11T01:50:13;27.00;;;18.77;;
11797;SDS011;5956;51.428;6.682;2023-02-11T01:52:39;24.83;;;18.27;;
11797;SDS011;5956;51.428;6.682;2023-02-11T01:55:08;23.23;;;17.70;;
11797;SDS011;5956;51.428;6.682;2023-02-11T01:57:50;23.97;;;17.80;;
11797;SDS011;5956;51.428;6.682;2023-02-11T02:00:17;21.60;;;18.27;;
11797;SDS011;5956;51.428;6.682;2023-02-11T02:02:47;25.80;;;17.87;;
11797;SDS011;5956;51.428;6.682;2023-02-11T02:05:18;26.07;;;18.87;;
11797;SDS011;5956;51.428;6.682;2023-02-11T02:07:48;23.23;;;18.60;;
11797;SDS011;5956;51.428;6.682;2023-02-11T02:10:16;21.20;;;16.83;;
11797;SDS011;5956;51.428;6.682;2023-02-11T02:12:44;24.93;;;17.73;;
11797;SDS011;5956;51.428;6.682;2023-02-11T02:15:19;24.53;;;17.70;;
11797;SDS011;5956;51.428;6.682;2023-02-11T02:17:48;25.80;;;17.47;;
11797;SDS011;5956;51.428;6.682;2023-02-11T02:20:25;20.40;;;16.40;;
11797;SDS011;5956;51.428;6.682;2023-02-11T02:23:05;22.73;;;17.23;;
11797;SDS011;5956;51.428;6.682;2023-02-11T02:28:22;20.43;;;14.67;;
11797;SDS011;5956;51.428;6.682;2023-02-11T02:31:00;22.17;;;15.40;;
11797;SDS011;5956;51.428;6.682;2023-02-11T02:33:38;20.53;;;15.20;;
11797;SDS011;5956;51.428;6.682;2023-02-11T02:36:08;20.40;;;15.27;;
11797;SDS011;5956;51.428;6.682;2023-02-11T02:38:39;23.53;;;15.37;;
11797;SDS011;5956;51.428;6.682;2023-02-11T02:41:08;20.57;;;14.87;;
11797;SDS011;5956;51.428;6.682;2023-02-11T02:43:40;18.80;;;14.60;;
11797;SDS011;5956;51.428;6.682;2023-02-11T02:46:11;20.87;;;14.90;;
11797;SDS011;5956;51.428;6.682;2023-02-11T02:48:39;20.43;;;15.17;;
11797;SDS011;5956;51.428;6.682;2023-02-11T02:53:53;22.57;;;14.10;;
11797;SDS011;5956;51.428;6.682;2023-02-11T02:56:24;18.00;;;14.40;;
11797;SDS011;5956;51.428;6.682;2023-02-11T02:58:57;19.70;;;13.13;;
11797;SDS011;5956;51.428;6.682;2023-02-11T03:01:28;21.13;;;13.40;;
11797;SDS011;5956;51.428;6.682;2023-02-11T03:04:04;19.20;;;13.27;;
11797;SDS011;5956;51.428;6.682;2023-02-11T03:06:37;22.03;;;14.37;;
11797;SDS011;5956;51.428;6.682;2023-02-11T03:09:06;17.77;;;14.30;;
11797;SDS011;5956;51.428;6.682;2023-02-11T03:11:34;18.37;;;14.07;;
11797;SDS011;5956;51.428;6.682;2023-02-11T03:14:05;19.30;;;14.27;;
11797;SDS011;5956;51.428;6.682;2023-02-11T03:16:33;18.53;;;14.13;;
11797;SDS011;5956;51.428;6.682;2023-02-11T03:19:07;20.73;;;14.13;;
11797;SDS011;5956;51.428;6.682;2023-02-11T03:21:36;22.33;;;14.37;;
11797;SDS011;5956;51.428;6.682;2023-02-11T03:24:05;23.03;;;12.93;;
11797;SDS011;5956;51.428;6.682;2023-02-11T03:26:33;25.83;;;15.10;;
11797;SDS011;5956;51.428;6.682;2023-02-11T03:29:03;21.03;;;13.77;;
11797;SDS011;5956;51.428;6.682;2023-02-11T03:31:34;23.00;;;14.63;;
11797;SDS011;5956;51.428;6.682;2023-02-11T03:34:03;23.40;;;15.73;;
11797;SDS011;5956;51.428;6.682;2023-02-11T03:36:37;21.03;;;15.17;;
11797;SDS011;5956;51.428;6.682;2023-02-11T03:39:05;21.83;;;15.17;;
11797;SDS011;5956;51.428;6.682;2023-02-11T03:41:32;19.37;;;14.53;;
11797;SDS011;5956;51.428;6.682;2023-02-11T03:43:59;23.53;;;15.37;;
11797;SDS011;5956;51.428;6.682;2023-02-11T03:46:27;22.50;;;15.97;;
11797;SDS011;5956;51.428;6.682;2023-02-11T03:48:57;22.03;;;14.50;;
11797;SDS011;5956;51.428;6.682;2023-02-11T03:51:26;27.13;;;15.90;;
11797;SDS011;5956;51.428;6.682;2023-02-11T03:53:56;19.50;;;14.83;;
11797;SDS011;5956;51.428;6.682;2023-02-11T03:56:25;21.80;;;14.67;;
11797;SDS011;5956;51.428;6.682;2023-02-11T03:58:53;18.87;;;13.73;;
11797;SDS011;5956;51.428;6.682;2023-02-11T04:01:19;22.37;;;14.70;;
11797;SDS011;5956;51.428;6.682;2023-02-11T04:03:46;21.40;;;15.37;;
11797;SDS011;5956;51.428;6.682;2023-02-11T04:06:12;21.90;;;14.63;;
11797;SDS011;5956;51.428;6.682;2023-02-11T04:08:39;19.63;;;14.40;;
11797;SDS011;5956;51.428;6.682;2023-02-11T04:11:07;18.77;;;14.50;;
11797;SDS011;5956;51.428;6.682;2023-02-11T04:13:34;22.87;;;15.80;;
11797;SDS011;5956;51.428;6.682;2023-02-11T04:16:00;20.50;;;15.73;;
11797;SDS011;5956;51.428;6.682;2023-02-11T04:18:27;23.07;;;15.97;;
11797;SDS011;5956;51.428;6.682;2023-02-11T04:20:53;24.50;;;16.13;;
11797;SDS011;5956;51.428;6.682;2023-02-11T04:23:20;24.07;;;16.83;;
11797;SDS011;5956;51.428;6.682;2023-02-11T04:25:47;22.70;;;15.33;;
11797;SDS011;5956;51.428;6.682;2023-02-11T04:28:15;22.97;;;16.23;;
11797;SDS011;5956;51.428;6.682;2023-02-11T04:30:42;25.70;;;16.80;;
11797;SDS011;5956;51.428;6.682;2023-02-11T04:33:08;24.20;;;15.77;;
11797;SDS011;5956;51.428;6.682;2023-02-11T04:35:35;22.53;;;16.17;;
11797;SDS011;5956;51.428;6.682;2023-02-11T04:38:02;22.20;;;16.37;;
11797;SDS011;5956;51.428;6.682;2023-02-11T04:40:28;26.83;;;16.60;;
11797;SDS011;5956;51.428;6.682;2023-02-11T04:42:55;23.40;;;16.10;;
11797;SDS011;5956;51.428;6.682;2023-02-11T04:45:23;21.03;;;16.03;;
11797;SDS011;5956;51.428;6.682;2023-02-11T04:47:49;22.93;;;16.50;;
11797;SDS011;5956;51.428;6.682;2023-02-11T04:50:16;26.70;;;16.70;;
11797;SDS011;5956;51.428;6.682;2023-02-11T04:52:43;27.30;;;17.60;;
11797;SDS011;5956;51.428;6.682;2023-02-11T04:55:09;23.17;;;16.30;;
11797;SDS011;5956;51.428;6.682;2023-02-11T04:57:36;22.20;;;15.77;;
11797;SDS011;5956;51.428;6.682;2023-02-11T05:00:02;24.67;;;16.67;;
11797;SDS011;5956;51.428;6.682;2023-02-11T05:02:31;28.47;;;17.00;;
11797;SDS011;5956;51.428;6.682;2023-02-11T05:04:58;27.63;;;17.20;;
11797;SDS011;5956;51.428;6.682;2023-02-11T05:07:24;28.33;;;17.67;;
11797;SDS011;5956;51.428;6.682;2023-02-11T05:09:51;26.73;;;17.93;;
11797;SDS011;5956;51.428;6.682;2023-02-11T05:12:17;24.40;;;16.80;;
11797;SDS011;5956;51.428;6.682;2023-02-11T05:14:44;30.47;;;18.63;;
11797;SDS011;5956;51.428;6.682;2023-02-11T05:17:10;29.07;;;19.43;;
11797;SDS011;5956;51.428;6.682;2023-02-11T05:19:38;31.80;;;19.90;;
11797;SDS011;5956;51.428;6.682;2023-02-11T05:22:06;30.73;;;18.80;;
11797;SDS011;5956;51.428;6.682;2023-02-11T05:24:33;27.47;;;19.23;;
11797;SDS011;5956;51.428;6.682;2023-02-11T05:27:00;31.43;;;20.50;;
11797;SDS011;5956;51.428;6.682;2023-02-11T05:29:26;25.97;;;19.67;;
11797;SDS011;5956;51.428;6.682;2023-02-11T05:31:53;29.50;;;20.30;;
11797;SDS011;5956;51.428;6.682;2023-02-11T05:34:19;35.17;;;22.20;;
11797;SDS011;5956;51.428;6.682;2023-02-11T05:36:47;29.83;;;21.80;;
11797;SDS011;5956;51.428;6.682;2023-02-11T05:39:14;28.70;;;20.40;;
11797;SDS011;5956;51.428;6.682;2023-02-11T05:41:40;28.10;;;21.60;;
11797;SDS011;5956;51.428;6.682;2023-02-11T05:44:07;30.73;;;21.43;;
11797;SDS011;5956;51.428;6.682;2023-02-11T05:46:34;30.13;;;21.87;;
11797;SDS011;5956;51.428;6.682;2023-02-11T05:49:00;32.00;;;20.77;;
11797;SDS011;5956;51.428;6.682;2023-02-11T05:51:27;27.47;;;21.40;;
11797;SDS011;5956;51.428;6.682;2023-02-11T05:53:55;30.07;;;20.03;;
11797;SDS011;5956;51.428;6.682;2023-02-11T05:56:21;29.63;;;20.80;;
11797;SDS011;5956;51.428;6.682;2023-02-11T05:58:48;29.40;;;20.67;;
11797;SDS011;5956;51.428;6.682;2023-02-11T06:01:15;32.10;;;21.07;;
11797;SDS011;5956;51.428;6.682;2023-02-11T06:03:41;29.33;;;20.50;;
11797;SDS011;5956;51.428;6.682;2023-02-11T06:06:08;29.97;;;20.13;;
11797;SDS011;5956;51.428;6.682;2023-02-11T06:08:35;28.93;;;20.53;;
11797;SDS011;5956;51.428;6.682;2023-02-11T06:11:03;31.73;;;19.70;;
11797;SDS011;5956;51.428;6.682;2023-02-11T06:13:30;29.67;;;20.07;;
11797;SDS011;5956;51.428;6.682;2023-02-11T06:15:57;30.97;;;20.00;;
11797;SDS011;5956;51.428;6.682;2023-02-11T06:18:24;26.87;;;19.70;;
11797;SDS011;5956;51.428;6.682;2023-02-11T06:20:50;28.23;;;19.53;;
11797;SDS011;5956;51.428;6.682;2023-02-11T06:23:17;27.90;;;18.70;;
11797;SDS011;5956;51.428;6.682;2023-02-11T06:25:44;30.13;;;19.20;;
11797;SDS011;5956;51.428;6.682;2023-02-11T06:28:12;27.77;;;19.30;;
11797;SDS011;5956;51.428;6.682;2023-02-11T06:30:38;26.20;;;18.23;;
11797;SDS011;5956;51.428;6.682;2023-02-11T06:33:05;28.50;;;19.20;;
11797;SDS011;5956;51.428;6.682;2023-02-11T06:35:31;31.73;;;19.17;;
11797;SDS011;5956;51.428;6.682;2023-02-11T06:37:59;32.40;;;18.70;;
11797;SDS011;5956;51.428;6.682;2023-02-11T06:40:26;29.77;;;17.97;;
11797;SDS011;5956;51.428;6.682;2023-02-11T06:42:52;34.70;;;19.53;;
11797;SDS011;5956;51.428;6.682;2023-02-11T06:45:20;31.50;;;18.53;;
11797;SDS011;5956;51.428;6.682;2023-02-11T06:47:47;31.20;;;19.10;;
11797;SDS011;5956;51.428;6.682;2023-02-11T06:50:16;34.07;;;19.47;;
11797;SDS011;5956;51.428;6.682;2023-02-11T06:52:43;31.63;;;19.67;;
11797;SDS011;5956;51.428;6.682;2023-02-11T06:55:09;29.93;;;18.23;;
11797;SDS011;5956;51.428;6.682;2023-02-11T06:57:36;26.67;;;18.47;;
11797;SDS011;5956;51.428;6.682;2023-02-11T07:00:02;31.07;;;19.47;;
11797;SDS011;5956;51.428;6.682;2023-02-11T07:02:31;28.53;;;18.73;;
11797;SDS011;5956;51.428;6.682;2023-02-11T07:04:57;30.57;;;18.93;;
11797;SDS011;5956;51.428;6.682;2023-02-11T07:07:24;31.93;;;18.17;;
11797;SDS011;5956;51.428;6.682;2023-02-11T07:09:50;36.30;;;20.33;;
11797;SDS011;5956;51.428;6.682;2023-02-11T07:12:17;31.90;;;19.33;;
11797;SDS011;5956;51.428;6.682;2023-02-11T07:14:44;25.87;;;18.40;;
11797;SDS011;5956;51.428;6.682;2023-02-11T07:17:10;39.40;;;19.93;;
11797;SDS011;5956;51.428;6.682;2023-02-11T07:19:38;32.23;;;20.80;;
11797;SDS011;5956;51.428;6.682;2023-02-11T07:22:05;33.50;;;19.20;;
11797;SDS011;5956;51.428;6.682;2023-02-11T07:24:31;29.57;;;18.60;;
11797;SDS011;5956;51.428;6.682;2023-02-11T07:26:58;36.07;;;19.87;;
11797;SDS011;5956;51.428;6.682;2023-02-11T07:29:24;35.67;;;20.10;;
11797;SDS011;5956;51.428;6.682;2023-02-11T07:31:51;31.40;;;19.83;;
11797;SDS011;5956;51.428;6.682;2023-02-11T07:34:17;35.67;;;18.83;;
11797;SDS011;5956;51.428;6.682;2023-02-11T07:36:45;31.83;;;19.67;;
11797;SDS011;5956;51.428;6.682;2023-02-11T07:39:13;34.90;;;21.20;;
11797;SDS011;5956;51.428;6.682;2023-02-11T07:41:39;34.27;;;20.87;;
11797;SDS011;5956;51.428;6.682;2023-02-11T07:44:07;33.63;;;20.83;;
11797;SDS011;5956;51.428;6.682;2023-02-11T07:46:33;31.77;;;21.00;;
11797;SDS011;5956;51.428;6.682;2023-02-11T07:49:00;35.40;;;20.87;;
11797;SDS011;5956;51.428;6.682;2023-02-11T07:51:27;35.03;;;21.23;;
11797;SDS011;5956;51.428;6.682;2023-02-11T07:53:56;32.13;;;19.57;;
11797;SDS011;5956;51.428;6.682;2023-02-11T07:56:23;34.00;;;20.90;;
11797;SDS011;5956;51.428;6.682;2023-02-11T07:58:50;36.43;;;21.50;;
11797;SDS011;5956;51.428;6.682;2023-02-11T08:01:19;34.87;;;20.73;;
11797;SDS011;5956;51.428;6.682;2023-02-11T08:03:46;34.93;;;22.03;;
11797;SDS011;5956;51.428;6.682;2023-02-11T08:06:14;37.50;;;21.93;;
11797;SDS011;5956;51.428;6.682;2023-02-11T08:08:41;35.27;;;22.17;;
11797;SDS011;5956;51.428;6.682;2023-02-11T08:11:10;37.83;;;21.37;;
11797;SDS011;5956;51.428;6.682;2023-02-11T08:13:37;36.07;;;21.87;;
11797;SDS011;5956;51.428;6.682;2023-02-11T08:16:04;39.10;;;23.23;;
11797;SDS011;5956;51.428;6.682;2023-02-11T08:18:31;36.13;;;21.40;;
11797;SDS011;5956;51.428;6.682;2023-02-11T08:21:02;39.67;;;22.80;;
11797;SDS011;5956;51.428;6.682;2023-02-11T08:23:29;33.60;;;22.37;;
11797;SDS011;5956;51.428;6.682;2023-02-11T08:25:59;33.53;;;23.17;;
11797;SDS011;5956;51.428;6.682;2023-02-11T08:28:27;41.50;;;23.50;;
11797;SDS011;5956;51.428;6.682;2023-02-11T08:30:53;41.97;;;23.13;;
11797;SDS011;5956;51.428;6.682;2023-02-11T08:33:20;39.40;;;25.70;;
11797;SDS011;5956;51.428;6.682;2023-02-11T08:35:47;40.23;;;23.67;;
11797;SDS011;5956;51.428;6.682;2023-02-11T08:38:13;39.80;;;26.00;;
11797;SDS011;5956;51.428;6.682;2023-02-11T08:40:40;41.03;;;23.77;;
11797;SDS011;5956;51.428;6.682;2023-02-11T08:43:06;36.83;;;22.87;;
11797;SDS011;5956;51.428;6.682;2023-02-11T08:45:35;40.50;;;23.80;;
11797;SDS011;5956;51.428;6.682;2023-02-11T08:48:02;39.50;;;24.13;;
11797;SDS011;5956;51.428;6.682;2023-02-11T08:50:29;38.30;;;25.00;;
11797;SDS011;5956;51.428;6.682;2023-02-11T08:52:56;39.77;;;26.30;;
11797;SDS011;5956;51.428;6.682;2023-02-11T08:55:23;41.83;;;24.03;;
11797;SDS011;5956;51.428;6.682;2023-02-11T08:57:49;39.90;;;25.67;;
11797;SDS011;5956;51.428;6.682;2023-02-11T09:00:16;45.23;;;26.50;;
11797;SDS011;5956;51.428;6.682;2023-02-11T09:02:44;40.43;;;26.43;;
11797;SDS011;5956;51.428;6.682;2023-02-11T09:05:11;37.10;;;24.30;;
11797;SDS011;5956;51.428;6.682;2023-02-11T09:07:38;39.03;;;25.87;;
11797;SDS011;5956;51.428;6.682;2023-02-11T09:10:04;49.23;;;26.20;;
11797;SDS011;5956;51.428;6.682;2023-02-11T09:12:31;39.03;;;25.10;;
11797;SDS011;5956;51.428;6.682;2023-02-11T09:14:58;39.93;;;25.97;;
11797;SDS011;5956;51.428;6.682;2023-02-11T09:17:25;44.40;;;25.80;;
11797;SDS011;5956;51.428;6.682;2023-02-11T09:19:53;33.07;;;19.20;;
11797;SDS011;5956;51.428;6.682;2023-02-11T09:22:21;42.97;;;27.37;;
11797;SDS011;5956;51.428;6.682;2023-02-11T09:24:48;39.20;;;26.20;;
11797;SDS011;5956;51.428;6.682;2023-02-11T09:27:14;39.13;;;26.47;;
11797;SDS011;5956;51.428;6.682;2023-02-11T09:29:41;39.40;;;26.03;;
11797;SDS011;5956;51.428;6.682;2023-02-11T09:32:08;39.23;;;24.30;;
11797;SDS011;5956;51.428;6.682;2023-02-11T09:34:34;36.40;;;24.43;;
11797;SDS011;5956;51.428;6.682;2023-02-11T09:37:02;38.87;;;25.80;;
11797;SDS011;5956;51.428;6.682;2023-02-11T09:39:29;47.03;;;27.20;;
11797;SDS011;5956;51.428;6.682;2023-02-11T09:42:06;45.13;;;26.07;;
11797;SDS011;5956;51.428;6.682;2023-02-11T09:44:34;40.07;;;26.23;;
11797;SDS011;5956;51.428;6.682;2023-02-11T09:47:02;37.73;;;26.27;;
11797;SDS011;5956;51.428;6.682;2023-02-11T09:49:31;38.00;;;25.77;;
11797;SDS011;5956;51.428;6.682;2023-02-11T09:52:01;41.27;;;25.73;;
11797;SDS011;5956;51.428;6.682;2023-02-11T09:54:33;42.80;;;26.33;;
11797;SDS011;5956;51.428;6.682;2023-02-11T09:57:02;41.63;;;26.53;;
11797;SDS011;5956;51.428;6.682;2023-02-11T09:59:30;43.53;;;25.97;;
11797;SDS011;5956;51.428;6.682;2023-02-11T10:01:57;47.73;;;27.23;;
11797;SDS011;5956;51.428;6.682;2023-02-11T10:04:31;38.87;;;27.67;;
11797;SDS011;5956;51.428;6.682;2023-02-11T10:07:01;39.53;;;27.73;;
11797;SDS011;5956;51.428;6.682;2023-02-11T10:09:39;39.20;;;27.20;;
11797;SDS011;5956;51.428;6.682;2023-02-11T10:12:10;43.40;;;26.90;;
11797;SDS011;5956;51.428;6.682;2023-02-11T10:14:45;46.03;;;28.07;;
11797;SDS011;5956;51.428;6.682;2023-02-11T10:17:17;41.67;;;26.23;;
11797;SDS011;5956;51.428;6.682;2023-02-11T10:19:52;41.77;;;27.77;;
11797;SDS011;5956;51.428;6.682;2023-02-11T10:22:21;38.67;;;25.23;;
11797;SDS011;5956;51.428;6.682;2023-02-11T10:24:51;46.07;;;28.40;;
11797;SDS011;5956;51.428;6.682;2023-02-11T10:27:19;44.83;;;27.30;;
11797;SDS011;5956;51.428;6.682;2023-02-11T10:29:47;44.53;;;27.43;;
11797;SDS011;5956;51.428;6.682;2023-02-11T10:32:21;43.27;;;27.53;;
11797;SDS011;5956;51.428;6.682;2023-02-11T10:34:50;42.87;;;27.77;;
11797;SDS011;5956;51.428;6.682;2023-02-11T10:37:17;46.03;;;27.77;;
11797;SDS011;5956;51.428;6.682;2023-02-11T10:39:44;46.13;;;27.50;;
11797;SDS011;5956;51.428;6.682;2023-02-11T10:42:12;41.27;;;26.67;;
11797;SDS011;5956;51.428;6.682;2023-02-11T10:44:40;40.47;;;26.53;;
11797;SDS011;5956;51.428;6.682;2023-02-11T10:47:11;44.13;;;28.40;;
11797;SDS011;5956;51.428;6.682;2023-02-11T10:49:40;45.27;;;27.93;;
11797;SDS011;5956;51.428;6.682;2023-02-11T10:52:11;43.10;;;26.90;;
11797;SDS011;5956;51.428;6.682;2023-02-11T10:54:38;40.73;;;27.17;;
11797;SDS011;5956;51.428;6.682;2023-02-11T10:57:05;43.93;;;27.13;;
11797;SDS011;5956;51.428;6.682;2023-02-11T10:59:33;44.30;;;29.53;;
11797;SDS011;5956;51.428;6.682;2023-02-11T11:02:04;45.13;;;28.40;;
11797;SDS011;5956;51.428;6.682;2023-02-11T11:04:42;47.43;;;29.20;;
11797;SDS011;5956;51.428;6.682;2023-02-11T11:07:11;50.50;;;28.90;;
11797;SDS011;5956;51.428;6.682;2023-02-11T11:09:42;44.73;;;29.53;;
11797;SDS011;5956;51.428;6.682;2023-02-11T11:12:15;49.30;;;29.83;;
11797;SDS011;5956;51.428;6.682;2023-02-11T11:14:54;43.07;;;27.63;;
11797;SDS011;5956;51.428;6.682;2023-02-11T11:17:23;47.53;;;29.07;;
11797;SDS011;5956;51.428;6.682;2023-02-11T11:19:53;47.43;;;29.47;;
11797;SDS011;5956;51.428;6.682;2023-02-11T11:22:20;44.23;;;29.33;;
11797;SDS011;5956;51.428;6.682;2023-02-11T11:24:47;49.47;;;30.63;;
11797;SDS011;5956;51.428;6.682;2023-02-11T11:27:20;48.77;;;30.40;;
11797;SDS011;5956;51.428;6.682;2023-02-11T11:29:49;50.50;;;30.87;;
11797;SDS011;5956;51.428;6.682;2023-02-11T11:32:19;43.23;;;29.13;;
11797;SDS011;5956;51.428;6.682;2023-02-11T11:34:48;46.43;;;30.43;;
11797;SDS011;5956;51.428;6.682;2023-02-11T11:37:18;50.17;;;30.40;;
11797;SDS011;5956;51.428;6.682;2023-02-11T11:39:47;47.03;;;30.17;;
11797;SDS011;5956;51.428;6.682;2023-02-11T11:44:57;48.33;;;29.63;;
11797;SDS011;5956;51.428;6.682;2023-02-11T11:47:27;48.63;;;31.10;;
11797;SDS011;5956;51.428;6.682;2023-02-11T11:50:01;49.23;;;31.37;;
11797;SDS011;5956;51.428;6.682;2023-02-11T11:52:32;45.17;;;31.20;;
11797;SDS011;5956;51.428;6.682;2023-02-11T11:55:02;29.47;;;19.73;;
11797;SDS011;5956;51.428;6.682;2023-02-11T11:57:30;38.97;;;24.43;;
11797;SDS011;5956;51.428;6.682;2023-02-11T11:59:59;42.53;;;29.67;;
11797;SDS011;5956;51.428;6.682;2023-02-11T12:05:09;43.73;;;29.40;;
11797;SDS011;5956;51.428;6.682;2023-02-11T12:07:42;45.40;;;30.17;;
11797;SDS011;5956;51.428;6.682;2023-02-11T12:17:50;46.80;;;30.07;;
11797;SDS011;5956;51.428;6.682;2023-02-11T12:20:20;50.50;;;30.77;;
11797;SDS011;5956;51.428;6.682;2023-02-11T12:22:53;44.70;;;30.23;;
11797;SDS011;5956;51.428;6.682;2023-02-11T12:25:26;54.37;;;37.30;;
11797;SDS011;5956;51.428;6.682;2023-02-11T12:28:03;49.77;;;30.97;;
11797;SDS011;5956;51.428;6.682;2023-02-11T12:30:38;44.90;;;29.57;;
11797;SDS011;5956;51.428;6.682;2023-02-11T12:33:08;52.43;;;31.83;;
11797;SDS011;5956;51.428;6.682;2023-02-11T12:35:41;51.17;;;31.87;;
11797;SDS011;5956;51.428;6.682;2023-02-11T12:38:14;45.73;;;31.37;;
11797;SDS011;5956;51.428;6.682;2023-02-11T12:40:44;59.70;;;39.90;;
11797;SDS011;5956;51.428;6.682;2023-02-11T12:43:14;51.30;;;32.60;;
11797;SDS011;5956;51.428;6.682;2023-02-11T12:45:46;47.30;;;32.37;;
11797;SDS011;5956;51.428;6.682;2023-02-11T12:48:17;44.53;;;30.83;;
11797;SDS011;5956;51.428;6.682;2023-02-11T12:50:51;46.83;;;32.33;;
11797;SDS011;5956;51.428;6.682;2023-02-11T12:53:25;51.30;;;33.23;;
11797;SDS011;5956;51.428;6.682;2023-02-11T12:55:56;43.73;;;31.63;;
11797;SDS011;5956;51.428;6.682;2023-02-11T12:58:26;46.77;;;32.20;;
11797;SDS011;5956;51.428;6.682;2023-02-11T13:00:57;46.13;;;31.07;;
11797;SDS011;5956;51.428;6.682;2023-02-11T13:03:27;44.27;;;31.43;;
11797;SDS011;5956;51.428;6.682;2023-02-11T13:05:59;50.57;;;32.40;;
11797;SDS011;5956;51.428;6.682;2023-02-11T13:08:28;51.60;;;31.97;;
11797;SDS011;5956;51.428;6.682;2023-02-11T13:10:56;47.30;;;32.67;;
11797;SDS011;5956;51.428;6.682;2023-02-11T13:13:24;48.57;;;32.63;;
11797;SDS011;5956;51.428;6.682;2023-02-11T13:15:53;47.00;;;32.17;;
11797;SDS011;5956;51.428;6.682;2023-02-11T13:18:24;47.83;;;32.17;;
11797;SDS011;5956;51.428;6.682;2023-02-11T13:20:53;44.43;;;31.07;;
11797;SDS011;5956;51.428;6.682;2023-02-11T13:23:24;46.37;;;33.07;;
11797;SDS011;5956;51.428;6.682;2023-02-11T13:25:53;48.47;;;31.77;;
11797;SDS011;5956;51.428;6.682;2023-02-11T13:28:24;47.20;;;33.03;;
11797;SDS011;5956;51.428;6.682;2023-02-11T13:30:53;52.33;;;34.53;;
11797;SDS011;5956;51.428;6.682;2023-02-11T13:33:30;47.53;;;32.73;;
11797;SDS011;5956;51.428;6.682;2023-02-11T13:43:34;47.33;;;33.50;;
11797;SDS011;5956;51.428;6.682;2023-02-11T13:46:01;46.87;;;32.23;;
11797;SDS011;5956;51.428;6.682;2023-02-11T13:48:29;48.27;;;31.23;;
11797;SDS011;5956;51.428;6.682;2023-02-11T13:50:57;46.73;;;33.03;;
11797;SDS011;5956;51.428;6.682;2023-02-11T13:53:24;48.03;;;31.73;;
11797;SDS011;5956;51.428;6.682;2023-02-11T13:55:53;42.00;;;31.60;;
11797;SDS011;5956;51.428;6.682;2023-02-11T13:58:34;42.67;;;32.30;;
11797;SDS011;5956;51.428;6.682;2023-02-11T14:01:04;48.10;;;34.40;;
11797;SDS011;5956;51.428;6.682;2023-02-11T14:03:32;71.63;;;48.13;;
11797;SDS011;5956;51.428;6.682;2023-02-11T14:06:13;44.57;;;32.40;;
11797;SDS011;5956;51.428;6.682;2023-02-11T14:08:59;42.43;;;32.07;;
11797;SDS011;5956;51.428;6.682;2023-02-11T14:19:05;44.07;;;30.80;;
11797;SDS011;5956;51.428;6.682;2023-02-11T14:21:33;45.80;;;32.60;;
11797;SDS011;5956;51.428;6.682;2023-02-11T14:26:43;45.10;;;31.50;;
11797;SDS011;5956;51.428;6.682;2023-02-11T14:29:15;41.77;;;32.30;;
11797;SDS011;5956;51.428;6.682;2023-02-11T14:31:42;40.37;;;31.50;;
11797;SDS011;5956;51.428;6.682;2023-02-11T14:34:16;42.20;;;30.23;;
11797;SDS011;5956;51.428;6.682;2023-02-11T14:36:49;42.27;;;29.77;;
11797;SDS011;5956;51.428;6.682;2023-02-11T14:39:21;44.10;;;30.17;;
11797;SDS011;5956;51.428;6.682;2023-02-11T14:41:51;39.90;;;28.63;;
11797;SDS011;5956;51.428;6.682;2023-02-11T14:44:18;38.87;;;30.03;;
11797;SDS011;5956;51.428;6.682;2023-02-11T14:46:46;40.17;;;30.50;;
11797;SDS011;5956;51.428;6.682;2023-02-11T14:49:17;44.47;;;30.17;;
11797;SDS011;5956;51.428;6.682;2023-02-11T14:51:46;35.03;;;27.87;;
11797;SDS011;5956;51.428;6.682;2023-02-11T14:54:14;36.00;;;27.33;;
11797;SDS011;5956;51.428;6.682;2023-02-11T14:56:41;37.17;;;27.90;;
11797;SDS011;5956;51.428;6.682;2023-02-11T14:59:14;38.43;;;27.77;;
11797;SDS011;5956;51.428;6.682;2023-02-11T15:01:43;40.70;;;29.60;;
11797;SDS011;5956;51.428;6.682;2023-02-11T15:04:22;42.27;;;29.10;;
11797;SDS011;5956;51.428;6.682;2023-02-11T15:06:49;38.30;;;29.33;;
11797;SDS011;5956;51.428;6.682;2023-02-11T15:09:17;38.97;;;29.03;;
11797;SDS011;5956;51.428;6.682;2023-02-11T15:11:45;35.87;;;28.23;;
11797;SDS011;5956;51.428;6.682;2023-02-11T15:14:15;42.60;;;29.90;;
11797;SDS011;5956;51.428;6.682;2023-02-11T15:16:44;42.93;;;30.00;;
11797;SDS011;5956;51.428;6.682;2023-02-11T15:19:16;41.93;;;30.30;;
11797;SDS011;5956;51.428;6.682;2023-02-11T15:21:45;49.87;;;35.70;;